KJAS/JAS METAR and TAF weather

Enter ICAO airport designator
Station Type Date Time Source
KJAS METAR 2022/05/24 11:35 UTC NOAA

KJAS 241135Z AUTO 00000KT 5SM BR OVC005 21/21 A2986 RMK AO2


Station Type Date Time Source
KJAS Decoded METAR 2022/05/24 11:35 UTC NOAA

Jasper, Jasper County-Bell Field Airport, TX, United States (KJAS) 30-53-08N 094-02-05W
May 24, 2022 - 07:35 AM EDT / 2022.05.24 1135 UTC
Wind: Calm:0
Visibility: 5 mile(s):0
Sky conditions: overcast
Weather: mist
Temperature: 69 F (21 C)
Dew Point: 69 F (21 C)
Relative Humidity: 100%
Pressure (altimeter): 29.86 in. Hg (1011 hPa)
ob: KJAS 241135Z AUTO 00000KT 5SM BR OVC005 21/21 A2986 RMK AO2
cycle: 11

Station Type Date Time Source
KJAS TAF UTC NOAA

Error!

Example: see airport list